Time;durP1;ratioP1;P1;durP2;ratioP2;P2;SDS_P1;SDS_P2;PMS_P1;PMS_P2;Temp;Humidity;BMP_temperature;BMP_pressure;BME280_temperature;BME280_humidity;BME280_pressure;Samples;Min_cycle;Max_cycle;Signal;HPM_P1;HPM_P2
2023/05/24 00:00:36;;;;;;;1.73;1.27;;;13.60;99.90;;;;;;5114668;28;20524;-85
2023/05/24 00:03:03;;;;;;;1.20;0.87;;;13.60;99.90;;;;;;5114316;28;21001;-85
2023/05/24 00:05:30;;;;;;;0.80;0.80;;;13.70;99.90;;;;;;5114522;28;20490;-85
2023/05/24 00:07:58;;;;;;;0.90;0.80;;;13.60;99.90;;;;;;5114526;28;20447;-86
2023/05/24 00:10:26;;;;;;;2.73;1.23;;;13.60;99.90;;;;;;5114173;28;20490;-86
2023/05/24 00:12:52;;;;;;;3.30;1.40;;;13.60;99.90;;;;;;5113842;28;20475;-86
2023/05/24 00:15:19;;;;;;;0.80;0.73;;;13.50;99.90;;;;;;5114474;28;20464;-86
2023/05/24 00:17:46;;;;;;;1.47;0.90;;;13.50;99.90;;;;;;5114376;28;20470;-86
2023/05/24 00:20:13;;;;;;;1.90;1.70;;;13.50;99.90;;;;;;5114500;28;20547;-86
2023/05/24 00:22:40;;;;;;;1.27;0.83;;;13.40;99.90;;;;;;5114224;28;20479;-86
2023/05/24 00:25:08;;;;;;;2.30;1.30;;;13.40;99.90;;;;;;5114375;28;20478;-87
2023/05/24 00:27:37;;;;;;;6.50;0.90;;;13.40;99.90;;;;;;5114487;28;20867;-86
2023/05/24 00:30:04;;;;;;;1.27;1.17;;;13.40;99.90;;;;;;5114391;28;20497;-86
2023/05/24 00:32:31;;;;;;;1.53;1.33;;;13.30;99.90;;;;;;5113898;28;21068;-86
2023/05/24 00:34:58;;;;;;;6.23;0.80;;;13.30;99.90;;;;;;5113871;28;20989;-86
2023/05/24 00:37:25;;;;;;;1.23;1.03;;;13.30;99.90;;;;;;5113870;28;20550;-86
2023/05/24 00:39:51;;;;;;;1.70;0.90;;;13.30;99.90;;;;;;5114363;28;20452;-86
2023/05/24 00:42:18;;;;;;;1.23;1.10;;;13.30;99.90;;;;;;5113988;28;20486;-86
2023/05/24 00:44:46;;;;;;;1.47;0.90;;;13.30;99.90;;;;;;5113947;28;20479;-85
2023/05/24 00:47:13;;;;;;;2.60;1.30;;;13.20;99.90;;;;;;5113963;28;20795;-86
2023/05/24 00:49:40;;;;;;;1.17;0.80;;;13.20;99.90;;;;;;5114038;28;20513;-86
2023/05/24 00:52:07;;;;;;;0.90;0.73;;;13.20;99.90;;;;;;5113960;28;20443;-86
2023/05/24 00:54:34;;;;;;;1.50;1.40;;;13.10;99.90;;;;;;5113827;28;20529;-86
2023/05/24 00:57:01;;;;;;;1.17;1.10;;;13.20;99.90;;;;;;5113918;28;20535;-86
2023/05/24 00:59:28;;;;;;;1.63;1.33;;;13.20;99.90;;;;;;5113725;28;20432;-85
2023/05/24 01:01:56;;;;;;;2.17;1.60;;;13.20;99.90;;;;;;5114547;28;20482;-86
2023/05/24 01:04:24;;;;;;;3.33;1.43;;;13.30;99.90;;;;;;5116410;28;20493;-85
2023/05/24 01:07:04;;;;;;;3.10;1.10;;;13.20;99.90;;;;;;5118002;28;20476;-86
2023/05/24 01:09:36;;;;;;;1.60;1.50;;;13.20;99.90;;;;;;5118006;27;20942;-86
2023/05/24 01:12:13;;;;;;;1.60;0.83;;;13.20;99.90;;;;;;5117833;28;20776;-86
2023/05/24 01:14:47;;;;;;;6.53;1.00;;;13.20;99.90;;;;;;5117609;28;20463;-86
2023/05/24 01:17:20;;;;;;;1.53;1.43;;;13.20;99.90;;;;;;5117820;28;20434;-86
2023/05/24 01:19:54;;;;;;;1.77;1.00;;;13.20;99.90;;;;;;5117790;28;20420;-86
2023/05/24 01:23:06;;;;;;;1.20;0.90;;;13.20;99.90;;;;;;5117726;28;20463;-86
2023/05/24 01:25:57;;;;;;;1.57;1.30;;;13.10;99.90;;;;;;5117599;28;20481;-86
2023/05/24 01:28:27;;;;;;;2.47;1.10;;;13.10;99.90;;;;;;5117625;28;20438;-86
2023/05/24 01:30:54;;;;;;;2.33;1.20;;;13.00;99.90;;;;;;5117432;28;20818;-86
2023/05/24 01:33:21;;;;;;;2.57;0.80;;;13.00;99.90;;;;;;5117312;27;20458;-86
2023/05/24 01:35:48;;;;;;;1.10;1.00;;;13.00;99.90;;;;;;5117500;28;20451;-86
2023/05/24 01:38:15;;;;;;;2.30;0.70;;;12.90;99.90;;;;;;5117050;28;20968;-86
2023/05/24 01:40:42;;;;;;;3.10;1.17;;;13.00;99.90;;;;;;5117083;27;20463;-86
2023/05/24 01:43:18;;;;;;;6.30;1.20;;;13.00;99.90;;;;;;5117092;27;20475;-87
2023/05/24 01:45:53;;;;;;;1.27;0.90;;;13.00;99.90;;;;;;5117306;28;20454;-86
2023/05/24 01:48:37;;;;;;;1.60;1.20;;;13.00;99.90;;;;;;5117325;28;20479;-87
2023/05/24 01:51:07;;;;;;;1.00;0.80;;;12.90;99.90;;;;;;5116873;28;20436;-87
2023/05/24 01:53:39;;;;;;;2.00;1.23;;;12.90;99.90;;;;;;5116873;28;20947;-87
2023/05/24 01:56:06;;;;;;;1.47;1.37;;;12.90;99.90;;;;;;5117100;28;20433;-86
2023/05/24 01:58:34;;;;;;;1.43;0.90;;;13.00;99.90;;;;;;5116997;28;20455;-86
2023/05/24 02:17:53;;;;;;;3.23;0.60;;;12.80;99.90;;;;;;5090644;28;20589;-85
2023/05/24 02:20:21;;;;;;;1.60;1.20;;;12.80;99.90;;;;;;5116720;28;20456;-86
2023/05/24 02:22:48;;;;;;;1.03;0.90;;;12.80;99.90;;;;;;5116703;28;20476;-85
2023/05/24 02:25:15;;;;;;;0.80;0.80;;;12.80;99.90;;;;;;5116429;28;20478;-86
2023/05/24 02:27:45;;;;;;;1.17;0.87;;;12.80;99.90;;;;;;5116301;28;20455;-86
2023/05/24 02:30:13;;;;;;;1.50;1.20;;;12.70;99.90;;;;;;5116281;28;20450;-85
2023/05/24 02:32:40;;;;;;;1.73;1.30;;;12.70;99.90;;;;;;5116287;28;20485;-85
2023/05/24 02:35:08;;;;;;;1.10;0.87;;;12.70;99.90;;;;;;5115903;28;20967;-86
2023/05/24 02:37:35;;;;;;;2.17;1.63;;;12.70;99.90;;;;;;5115921;28;20899;-85
2023/05/24 02:40:01;;;;;;;1.53;1.00;;;12.80;99.90;;;;;;5116121;28;20826;-86
2023/05/24 02:42:28;;;;;;;2.50;1.13;;;12.70;99.90;;;;;;5115874;27;20528;-85
2023/05/24 02:44:55;;;;;;;4.67;1.13;;;12.70;99.90;;;;;;5115913;28;20464;-86
2023/05/24 02:47:22;;;;;;;2.53;1.10;;;12.60;99.90;;;;;;5116073;28;20446;-86
2023/05/24 02:49:48;;;;;;;1.47;0.80;;;12.70;99.90;;;;;;5115951;28;20451;-86
2023/05/24 02:52:20;;;;;;;2.20;1.50;;;12.70;99.90;;;;;;5115700;28;20436;-85
2023/05/24 02:54:47;;;;;;;1.23;0.90;;;12.60;99.90;;;;;;5115783;28;20503;-86
2023/05/24 02:57:13;;;;;;;1.33;1.13;;;12.60;99.90;;;;;;5115792;28;20443;-86
2023/05/24 02:59:40;;;;;;;5.43;1.57;;;12.60;99.90;;;;;;5115778;28;20447;-87
2023/05/24 03:02:07;;;;;;;2.40;1.40;;;12.50;99.90;;;;;;5116310;28;21009;-86
2023/05/24 03:04:34;;;;;;;4.63;1.20;;;12.50;99.90;;;;;;5115682;28;20475;-86
2023/05/24 03:07:00;;;;;;;1.70;1.07;;;12.60;99.90;;;;;;5115594;28;20452;-85
2023/05/24 03:09:28;;;;;;;1.07;0.97;;;12.50;99.90;;;;;;5115627;28;20455;-85
2023/05/24 03:11:55;;;;;;;2.60;1.10;;;12.50;99.90;;;;;;5115717;28;20447;-86
2023/05/24 03:14:23;;;;;;;3.60;1.43;;;12.50;99.90;;;;;;5115374;28;20466;-85
2023/05/24 03:16:50;;;;;;;1.50;1.40;;;12.40;99.90;;;;;;5114941;28;20958;-86
2023/05/24 03:19:17;;;;;;;1.90;1.23;;;12.40;99.90;;;;;;5115776;28;20458;-84
2023/05/24 03:21:44;;;;;;;1.73;1.63;;;12.40;99.90;;;;;;5115245;28;20444;-85
2023/05/24 03:24:11;;;;;;;2.63;1.57;;;12.40;99.90;;;;;;5114945;28;20479;-85
2023/05/24 03:26:40;;;;;;;1.90;1.43;;;12.40;99.90;;;;;;5115175;28;20519;-85
2023/05/24 03:29:06;;;;;;;1.40;0.90;;;12.40;99.90;;;;;;5115139;28;20450;-85
2023/05/24 03:31:33;;;;;;;1.80;1.27;;;12.30;99.90;;;;;;5115186;28;20864;-85
2023/05/24 03:34:00;;;;;;;2.30;1.43;;;12.30;99.90;;;;;;5114552;28;20466;-85
2023/05/24 03:36:27;;;;;;;2.70;1.57;;;12.20;99.90;;;;;;5115053;28;20453;-86
2023/05/24 03:38:56;;;;;;;1.60;0.93;;;12.30;99.90;;;;;;5114644;28;20988;-86
2023/05/24 03:41:23;;;;;;;1.90;1.10;;;12.20;99.90;;;;;;5115008;28;20490;-86
2023/05/24 03:43:51;;;;;;;2.10;1.00;;;12.20;99.90;;;;;;5114838;28;20491;-85
2023/05/24 03:46:18;;;;;;;2.13;1.07;;;12.10;99.90;;;;;;5114982;28;20814;-85
2023/05/24 03:48:45;;;;;;;2.30;1.33;;;12.10;99.90;;;;;;5124004;28;20455;-86
2023/05/24 03:51:12;;;;;;;1.67;1.57;;;12.20;99.90;;;;;;5114793;27;20458;-86
2023/05/24 03:53:38;;;;;;;5.83;1.23;;;12.10;99.90;;;;;;5114672;28;20443;-85
2023/05/24 03:56:05;;;;;;;3.90;1.23;;;12.10;99.90;;;;;;5114611;28;20454;-84
2023/05/24 03:58:32;;;;;;;1.00;0.77;;;12.00;99.90;;;;;;5114650;28;20457;-85
2023/05/24 04:01:01;;;;;;;3.33;1.63;;;12.00;99.90;;;;;;5114702;27;20438;-85
2023/05/24 04:03:27;;;;;;;1.63;1.10;;;12.00;99.90;;;;;;5114506;28;20489;-85
2023/05/24 04:05:54;;;;;;;1.73;0.87;;;12.00;99.90;;;;;;5114600;28;20436;-85
2023/05/24 04:08:21;;;;;;;0.80;0.80;;;12.00;99.90;;;;;;5114609;28;20546;-86
2023/05/24 04:10:48;;;;;;;0.87;0.87;;;12.00;99.90;;;;;;5114432;28;20462;-85
2023/05/24 04:13:15;;;;;;;1.70;1.03;;;12.10;99.90;;;;;;5114073;28;20931;-85
2023/05/24 04:15:42;;;;;;;1.17;0.90;;;11.90;99.90;;;;;;5114322;28;20468;-85
2023/05/24 04:18:10;;;;;;;1.70;0.93;;;11.90;99.90;;;;;;5114098;28;21076;-85
2023/05/24 04:20:37;;;;;;;0.83;0.83;;;11.90;99.90;;;;;;5114091;28;20452;-85
2023/05/24 04:23:04;;;;;;;3.73;1.13;;;11.90;99.90;;;;;;5114350;28;20479;-86
2023/05/24 04:25:32;;;;;;;3.03;1.50;;;11.80;99.90;;;;;;5113855;28;20477;-85
2023/05/24 04:27:59;;;;;;;1.20;1.10;;;11.80;99.90;;;;;;5114179;28;20483;-85
2023/05/24 04:30:28;;;;;;;2.27;1.10;;;11.80;99.90;;;;;;5114156;28;20538;-86
2023/05/24 04:32:55;;;;;;;1.93;1.13;;;11.80;99.90;;;;;;5114492;28;20450;-85
2023/05/24 04:35:24;;;;;;;5.07;1.33;;;11.80;99.90;;;;;;5113817;28;20443;-86
2023/05/24 04:37:51;;;;;;;1.70;1.00;;;11.80;99.90;;;;;;5113237;28;20485;-86
2023/05/24 04:40:19;;;;;;;2.63;1.23;;;11.90;99.90;;;;;;5114238;28;20447;-86
2023/05/24 04:42:46;;;;;;;2.80;1.03;;;11.90;99.90;;;;;;5114043;28;20487;-86
2023/05/24 04:45:13;;;;;;;3.40;0.73;;;12.00;99.90;;;;;;5113758;28;21014;-85
2023/05/24 04:47:40;;;;;;;1.17;1.07;;;11.90;99.90;;;;;;5113761;28;20447;-85
2023/05/24 04:50:08;;;;;;;3.03;1.33;;;11.80;99.90;;;;;;5113970;28;20814;-86
2023/05/24 04:52:36;;;;;;;1.17;1.07;;;11.80;99.90;;;;;;5114067;28;20448;-85
2023/05/24 04:55:03;;;;;;;1.63;1.07;;;11.80;99.90;;;;;;5113819;28;20475;-85
2023/05/24 04:57:30;;;;;;;3.87;1.30;;;11.80;99.90;;;;;;5113894;28;20481;-86
2023/05/24 04:59:57;;;;;;;1.60;1.30;;;11.80;99.90;;;;;;5113918;28;20454;-81
2023/05/24 05:02:25;;;;;;;6.90;1.47;;;11.90;99.90;;;;;;5114709;28;20475;-89
2023/05/24 05:04:52;;;;;;;2.77;1.07;;;11.90;99.90;;;;;;5114440;28;20535;-87
2023/05/24 05:07:18;;;;;;;1.27;1.17;;;11.90;99.90;;;;;;5114178;28;20436;-88
2023/05/24 05:09:46;;;;;;;1.60;1.27;;;11.90;99.90;;;;;;5114542;28;20448;-88
2023/05/24 05:12:14;;;;;;;1.10;0.93;;;11.90;99.90;;;;;;5114690;28;20451;-88
2023/05/24 05:14:40;;;;;;;3.67;1.57;;;11.80;99.90;;;;;;5114061;28;20532;-88
2023/05/24 05:17:07;;;;;;;4.20;1.63;;;11.90;99.90;;;;;;5114085;28;20480;-88
2023/05/24 05:19:34;;;;;;;4.10;1.60;;;11.90;99.90;;;;;;5114732;28;20931;-88
2023/05/24 05:22:01;;;;;;;2.70;1.00;;;11.90;99.90;;;;;;5114323;28;20447;-89
2023/05/24 05:24:28;;;;;;;2.07;0.90;;;11.90;99.90;;;;;;5114222;28;20849;-88
2023/05/24 05:26:56;;;;;;;4.27;1.20;;;12.00;99.90;;;;;;5114296;28;20954;-88
2023/05/24 05:29:25;;;;;;;4.20;1.90;;;12.10;99.90;;;;;;5114270;28;20436;-88
2023/05/24 05:31:52;;;;;;;2.37;1.57;;;12.10;99.90;;;;;;5114253;28;20439;-88
2023/05/24 05:34:19;;;;;;;3.87;2.00;;;12.10;99.90;;;;;;5114061;28;20469;-88
2023/05/24 05:36:46;;;;;;;2.53;1.27;;;12.10;99.90;;;;;;5114319;28;20457;-88
2023/05/24 05:39:13;;;;;;;4.33;1.27;;;12.10;99.90;;;;;;5114215;28;20446;-88
2023/05/24 05:41:42;;;;;;;1.47;0.93;;;12.10;99.90;;;;;;5114584;28;20435;-88
2023/05/24 05:44:11;;;;;;;1.73;0.90;;;12.20;99.90;;;;;;5114077;28;21008;-88
2023/05/24 05:46:37;;;;;;;2.53;1.43;;;12.10;99.90;;;;;;5113904;28;20482;-88
2023/05/24 05:49:04;;;;;;;4.53;0.90;;;12.00;99.90;;;;;;5114063;28;20452;-88
2023/05/24 05:51:31;;;;;;;3.73;1.10;;;12.00;99.90;;;;;;5116829;28;20524;-85
2023/05/24 05:53:58;;;;;;;1.47;1.30;;;11.90;99.90;;;;;;5117663;27;20456;-87
2023/05/24 05:56:26;;;;;;;2.03;1.20;;;12.00;99.90;;;;;;5117522;28;20432;-87
2023/05/24 05:58:53;;;;;;;1.13;0.83;;;12.00;99.90;;;;;;5117567;28;20451;-89
2023/05/24 06:01:21;;;;;;;3.43;1.03;;;12.00;99.90;;;;;;5117470;28;20438;-88
2023/05/24 06:03:48;;;;;;;2.40;1.53;;;12.10;99.90;;;;;;5117381;28;20510;-87
2023/05/24 06:06:14;;;;;;;2.97;1.10;;;12.10;99.90;;;;;;5117453;28;20454;-88
2023/05/24 06:08:42;;;;;;;1.20;1.10;;;12.10;99.90;;;;;;5117824;28;20451;-87
2023/05/24 06:11:12;;;;;;;3.10;1.40;;;12.20;99.90;;;;;;5118145;28;20459;-87
2023/05/24 06:13:38;;;;;;;2.40;1.20;;;12.20;99.90;;;;;;5118863;28;20440;-88
2023/05/24 06:16:07;;;;;;;4.70;1.40;;;12.20;99.90;;;;;;5118105;28;20880;-88
2023/05/24 06:18:35;;;;;;;2.40;1.00;;;12.20;99.90;;;;;;5117370;28;21053;-88
2023/05/24 06:21:02;;;;;;;1.30;0.90;;;12.10;99.90;;;;;;5117514;28;20534;-88
2023/05/24 06:23:29;;;;;;;2.30;0.83;;;12.10;99.90;;;;;;5116969;28;20525;-88
2023/05/24 06:25:56;;;;;;;2.63;1.50;;;12.10;99.90;;;;;;5116970;28;20468;-88
2023/05/24 06:28:22;;;;;;;3.00;1.20;;;12.10;99.90;;;;;;5116952;28;20854;-88
2023/05/24 06:30:49;;;;;;;1.60;1.07;;;12.20;99.90;;;;;;5116996;28;20443;-87
2023/05/24 06:33:16;;;;;;;2.67;1.20;;;12.20;99.90;;;;;;5116720;28;20455;-88
2023/05/24 06:35:44;;;;;;;7.40;1.63;;;12.20;99.90;;;;;;5116436;28;20460;-88
2023/05/24 06:38:11;;;;;;;1.17;0.93;;;12.20;99.90;;;;;;5116848;28;20447;-88
2023/05/24 06:40:38;;;;;;;2.00;1.20;;;12.30;99.90;;;;;;5116514;28;20847;-87
2023/05/24 06:43:05;;;;;;;1.63;1.30;;;12.30;99.90;;;;;;5116166;28;20451;-87
2023/05/24 06:45:32;;;;;;;4.17;1.50;;;12.40;99.90;;;;;;5116532;28;20478;-88
2023/05/24 06:47:58;;;;;;;3.07;1.37;;;12.40;99.90;;;;;;5116471;27;20444;-88
2023/05/24 06:50:26;;;;;;;4.00;0.90;;;12.40;99.90;;;;;;5116433;28;20448;-88
2023/05/24 06:52:54;;;;;;;1.63;1.00;;;12.50;99.90;;;;;;5116327;28;20450;-88
2023/05/24 06:55:21;;;;;;;1.20;1.10;;;12.50;99.90;;;;;;5116253;28;20498;-88
2023/05/24 06:57:48;;;;;;;1.10;1.00;;;12.60;99.90;;;;;;5116451;28;20480;-89
2023/05/24 07:00:15;;;;;;;1.43;0.90;;;12.60;99.90;;;;;;5116454;28;20448;-88
2023/05/24 07:02:42;;;;;;;2.70;0.93;;;12.60;99.90;;;;;;5114997;28;20459;-88
2023/05/24 07:05:11;;;;;;;2.40;1.50;;;12.60;99.90;;;;;;5116213;28;20479;-88
2023/05/24 07:07:38;;;;;;;2.63;1.53;;;12.60;99.90;;;;;;5116244;28;20452;-88
2023/05/24 07:10:09;;;;;;;2.90;1.17;;;12.60;99.90;;;;;;5116409;28;20508;-88
2023/05/24 07:12:36;;;;;;;5.03;0.90;;;12.60;99.90;;;;;;5115786;28;20442;-88
2023/05/24 07:15:03;;;;;;;1.00;1.00;;;12.50;99.90;;;;;;5116064;28;20993;-88
2023/05/24 07:17:30;;;;;;;1.93;1.27;;;12.50;99.90;;;;;;5116246;28;20830;-88
2023/05/24 07:19:57;;;;;;;4.00;1.53;;;12.40;99.90;;;;;;5116014;28;20444;-88
2023/05/24 07:22:26;;;;;;;1.33;1.23;;;12.40;99.90;;;;;;5115671;28;20444;-88
2023/05/24 07:24:52;;;;;;;3.80;1.87;;;12.40;99.90;;;;;;5115845;28;20491;-87
2023/05/24 07:27:21;;;;;;;1.20;1.10;;;12.40;99.90;;;;;;5115586;28;20435;-88
2023/05/24 07:29:48;;;;;;;7.13;1.50;;;12.40;99.90;;;;;;5115677;28;20460;-88
2023/05/24 07:32:15;;;;;;;5.60;2.10;;;12.40;99.90;;;;;;5115623;28;20447;-87
2023/05/24 07:34:42;;;;;;;2.50;0.87;;;12.50;99.90;;;;;;5115659;27;20464;-88
2023/05/24 07:37:09;;;;;;;2.30;1.00;;;12.50;99.90;;;;;;5115437;28;20924;-88
2023/05/24 07:39:36;;;;;;;7.50;1.50;;;12.50;99.90;;;;;;5115661;28;20443;-88
2023/05/24 07:42:04;;;;;;;1.43;0.97;;;12.50;99.90;;;;;;5115663;28;20452;-88
2023/05/24 07:44:32;;;;;;;14.83;1.67;;;12.50;99.90;;;;;;5115102;28;20479;-84
2023/05/24 07:46:59;;;;;;;4.77;1.60;;;12.50;99.90;;;;;;5115043;28;20448;-87
2023/05/24 07:49:26;;;;;;;3.73;1.57;;;12.50;99.90;;;;;;5115065;28;20477;-85
2023/05/24 07:51:55;;;;;;;3.77;1.60;;;12.50;99.90;;;;;;5114710;28;20447;-85
2023/05/24 07:54:22;;;;;;;7.23;1.33;;;12.50;99.90;;;;;;5114546;28;21061;-85
2023/05/24 07:56:49;;;;;;;3.77;2.10;;;12.50;99.90;;;;;;5114551;28;20443;-85
2023/05/24 07:59:15;;;;;;;3.03;1.00;;;12.50;99.90;;;;;;5114312;28;20439;-86
2023/05/24 08:01:43;;;;;;;3.03;1.53;;;12.50;99.90;;;;;;5114541;27;20452;-85
2023/05/24 08:04:10;;;;;;;3.00;2.10;;;12.50;99.90;;;;;;5114280;28;20842;-85
2023/05/24 08:06:37;;;;;;;3.10;2.27;;;12.60;99.90;;;;;;5115322;28;20931;-85
2023/05/24 08:09:06;;;;;;;12.33;1.30;;;12.60;99.90;;;;;;5114229;28;20439;-86
2023/05/24 08:11:33;;;;;;;2.33;1.57;;;12.80;99.90;;;;;;5114283;28;20542;-85
2023/05/24 08:13:59;;;;;;;4.70;1.77;;;12.90;99.90;;;;;;5113225;28;20460;-86
2023/05/24 08:16:26;;;;;;;4.30;2.10;;;13.00;99.90;;;;;;5114382;28;20442;-85
2023/05/24 08:18:54;;;;;;;1.70;1.60;;;13.10;99.90;;;;;;5114160;28;20543;-84
2023/05/24 08:21:21;;;;;;;2.67;2.03;;;13.10;99.90;;;;;;5113906;28;20926;-86
2023/05/24 08:23:48;;;;;;;1.90;1.37;;;13.20;99.90;;;;;;5114112;28;20479;-85
2023/05/24 08:26:17;;;;;;;4.43;1.83;;;13.30;99.90;;;;;;5114173;28;20447;-85
2023/05/24 08:28:44;;;;;;;2.63;1.23;;;13.30;99.90;;;;;;5114054;28;20447;-85
2023/05/24 08:31:11;;;;;;;1.43;1.33;;;13.30;99.90;;;;;;5114613;28;20428;-85
2023/05/24 08:33:38;;;;;;;1.90;1.80;;;13.30;99.90;;;;;;5113684;28;20957;-85
2023/05/24 08:36:06;;;;;;;1.77;1.67;;;13.30;99.90;;;;;;5114036;28;20455;-84
2023/05/24 08:38:33;;;;;;;2.37;1.70;;;13.40;99.90;;;;;;5113703;28;20827;-85
2023/05/24 08:41:00;;;;;;;2.90;1.73;;;13.40;99.90;;;;;;5113894;28;20447;-85
2023/05/24 08:43:28;;;;;;;4.00;2.97;;;13.40;99.90;;;;;;5113931;28;20462;-85
2023/05/24 08:45:57;;;;;;;1.70;1.37;;;13.50;99.90;;;;;;5113767;28;20482;-85
2023/05/24 08:48:26;;;;;;;4.60;1.83;;;13.50;99.90;;;;;;5113689;28;20447;-85
2023/05/24 08:50:53;;;;;;;1.40;1.30;;;13.50;99.90;;;;;;5113840;28;20811;-86
2023/05/24 08:53:22;;;;;;;3.13;1.70;;;13.50;99.90;;;;;;5113925;28;20923;-85
2023/05/24 08:55:52;;;;;;;1.93;1.33;;;13.50;99.90;;;;;;5113562;28;20926;-85
2023/05/24 08:58:18;;;;;;;1.67;1.47;;;13.60;99.90;;;;;;5113832;28;20451;-86
2023/05/24 09:00:45;;;;;;;2.07;1.57;;;13.60;99.90;;;;;;5113795;28;20447;-85
2023/05/24 09:03:13;;;;;;;2.30;1.13;;;13.70;99.90;;;;;;5113731;28;20452;-85
2023/05/24 09:05:41;;;;;;;3.97;1.80;;;13.80;99.90;;;;;;5113348;28;21053;-85
2023/05/24 09:08:09;;;;;;;3.50;1.90;;;14.00;99.90;;;;;;5113718;28;20443;-85
2023/05/24 09:10:38;;;;;;;6.63;2.10;;;14.10;99.90;;;;;;5113453;28;20928;-84
2023/05/24 09:13:06;;;;;;;7.10;2.17;;;13.90;99.90;;;;;;5113815;28;20454;-85
2023/05/24 09:15:33;;;;;;;1.83;1.37;;;14.00;99.90;;;;;;5113620;28;20483;-85
2023/05/24 09:18:00;;;;;;;4.30;1.50;;;14.00;99.90;;;;;;5113418;28;20486;-85
2023/05/24 09:20:27;;;;;;;7.53;1.80;;;14.00;99.90;;;;;;5113717;28;20443;-85
2023/05/24 09:22:56;;;;;;;4.13;1.70;;;14.10;99.90;;;;;;5113579;28;20451;-86
2023/05/24 09:25:22;;;;;;;4.07;1.83;;;14.20;99.90;;;;;;5115989;28;20487;-86
2023/05/24 09:27:52;;;;;;;1.83;1.20;;;14.20;99.90;;;;;;5117557;28;20448;-86
2023/05/24 09:30:19;;;;;;;7.67;2.00;;;14.20;99.90;;;;;;5117513;28;20423;-85
2023/05/24 09:32:57;;;;;;;2.53;1.23;;;14.20;99.90;;;;;;5117646;28;20908;-85
2023/05/24 09:35:25;;;;;;;3.50;1.90;;;14.20;99.90;;;;;;5117259;28;20519;-86
2023/05/24 09:37:54;;;;;;;5.73;1.90;;;14.20;99.90;;;;;;5117320;28;20504;-85
2023/05/24 09:40:21;;;;;;;2.03;1.47;;;14.10;99.90;;;;;;5117295;28;20432;-85
2023/05/24 09:42:50;;;;;;;6.47;1.17;;;14.10;99.90;;;;;;5116809;28;20451;-85
2023/05/24 09:45:18;;;;;;;3.63;2.07;;;14.10;99.90;;;;;;5116942;28;20841;-85
2023/05/24 09:47:45;;;;;;;5.23;1.70;;;14.10;99.90;;;;;;5116794;28;20962;-86
2023/05/24 09:50:14;;;;;;;1.83;1.33;;;14.00;99.90;;;;;;5116932;28;20439;-85
2023/05/24 09:52:41;;;;;;;4.90;1.67;;;13.90;99.90;;;;;;5116642;28;20918;-84
2023/05/24 09:55:12;;;;;;;1.00;0.90;;;13.90;99.90;;;;;;5116869;28;20841;-85
2023/05/24 09:57:40;;;;;;;3.10;2.20;;;13.90;99.90;;;;;;5117251;28;20458;-85
2023/05/24 10:00:15;;;;;;;4.90;1.53;;;13.90;99.90;;;;;;5116721;28;20878;-85
2023/05/24 10:02:44;;;;;;;5.27;1.67;;;13.90;99.90;;;;;;5116842;28;20435;-85
2023/05/24 10:05:12;;;;;;;1.67;1.57;;;13.80;99.90;;;;;;5116307;28;20479;-86
2023/05/24 10:07:41;;;;;;;2.57;1.77;;;13.80;99.90;;;;;;5116313;28;20480;-85
2023/05/24 10:10:10;;;;;;;2.60;1.20;;;13.70;99.90;;;;;;5116289;28;20948;-85
2023/05/24 10:12:41;;;;;;;1.77;1.27;;;13.70;99.90;;;;;;5116526;28;20448;-85
2023/05/24 10:15:11;;;;;;;1.70;1.60;;;13.80;99.90;;;;;;5116550;28;20558;-85
2023/05/24 10:17:37;;;;;;;3.63;1.97;;;13.80;99.90;;;;;;5116167;28;20475;-85
2023/05/24 10:20:07;;;;;;;3.77;1.57;;;13.90;99.90;;;;;;5116381;27;20439;-85
2023/05/24 10:22:37;;;;;;;4.73;1.63;;;14.00;99.90;;;;;;5116681;28;20843;-85
2023/05/24 10:25:08;;;;;;;4.17;1.83;;;14.10;99.90;;;;;;5116252;28;20495;-85
2023/05/24 10:27:37;;;;;;;1.43;1.10;;;14.10;99.90;;;;;;5116700;28;20907;-85
2023/05/24 10:30:11;;;;;;;7.77;2.50;;;14.00;99.90;;;;;;5116365;28;20486;-86
2023/05/24 10:32:40;;;;;;;2.30;1.67;;;14.00;99.90;;;;;;5116364;28;20795;-85
2023/05/24 10:35:11;;;;;;;1.43;1.00;;;13.90;99.90;;;;;;5116129;28;20467;-86
2023/05/24 10:37:38;;;;;;;1.40;1.23;;;13.70;99.90;;;;;;5115525;28;20911;-86
2023/05/24 10:40:08;;;;;;;2.10;1.43;;;13.70;99.90;;;;;;5116057;28;20564;-85
2023/05/24 10:42:35;;;;;;;1.93;1.63;;;13.60;99.90;;;;;;5116282;27;20439;-86
2023/05/24 10:45:30;;;;;;;7.93;1.97;;;13.50;99.90;;;;;;5115467;27;20488;-86
2023/05/24 10:47:57;;;;;;;2.47;1.30;;;13.40;99.90;;;;;;5116329;28;20421;-86
2023/05/24 10:50:25;;;;;;;2.60;1.60;;;13.40;99.90;;;;;;5115874;28;20534;-86
2023/05/24 10:53:10;;;;;;;2.80;2.00;;;13.30;99.90;;;;;;5115832;28;20935;-86
2023/05/24 10:55:52;;;;;;;2.67;1.27;;;13.20;99.90;;;;;;5115888;28;20459;-86
2023/05/24 10:58:19;;;;;;;1.40;1.27;;;13.10;99.90;;;;;;5115763;27;20427;-85
2023/05/24 11:00:47;;;;;;;3.97;2.03;;;13.10;99.90;;;;;;5115649;28;20455;-86
2023/05/24 11:03:22;;;;;;;4.23;1.10;;;13.10;99.90;;;;;;5115672;28;20444;-85
2023/05/24 11:05:53;;;;;;;2.47;1.73;;;13.20;99.90;;;;;;5115484;28;20470;-85
2023/05/24 11:08:30;;;;;;;6.30;1.63;;;13.30;99.90;;;;;;5115646;28;20442;-86
2023/05/24 11:11:13;;;;;;;3.97;1.10;;;13.30;99.90;;;;;;5115491;28;20431;-85
2023/05/24 11:13:40;;;;;;;16.80;1.60;;;13.30;99.90;;;;;;5112991;28;20451;-85
2023/05/24 11:16:07;;;;;;;1.43;1.30;;;13.30;99.90;;;;;;5115297;28;20950;-85
2023/05/24 11:18:37;;;;;;;3.80;1.90;;;13.30;99.90;;;;;;5115236;28;20466;-85
2023/05/24 11:21:06;;;;;;;1.00;0.90;;;13.30;99.90;;;;;;5114943;27;20497;-85
2023/05/24 11:23:33;;;;;;;1.80;0.90;;;13.40;99.90;;;;;;5115138;28;20446;-85
2023/05/24 11:26:01;;;;;;;2.00;1.33;;;13.30;99.90;;;;;;5115123;28;20487;-85
2023/05/24 11:28:29;;;;;;;3.93;2.10;;;13.30;99.90;;;;;;5115167;28;20460;-85
2023/05/24 11:30:56;;;;;;;3.80;1.83;;;13.40;99.90;;;;;;5115077;28;20450;-85
2023/05/24 11:33:24;;;;;;;2.37;1.27;;;13.40;99.90;;;;;;5114953;27;20484;-85
2023/05/24 11:35:51;;;;;;;2.93;1.43;;;13.60;99.90;;;;;;5114802;28;20923;-85
2023/05/24 11:38:20;;;;;;;3.20;1.30;;;13.80;99.90;;;;;;5114996;28;20467;-85
2023/05/24 11:40:48;;;;;;;2.57;1.70;;;13.90;99.90;;;;;;5114884;28;20448;-86
2023/05/24 11:43:17;;;;;;;3.03;1.80;;;14.00;99.90;;;;;;5114666;28;20435;-85
2023/05/24 11:45:45;;;;;;;2.33;1.37;;;14.10;99.90;;;;;;5114738;28;20502;-85
2023/05/24 11:48:12;;;;;;;2.80;1.10;;;14.20;99.90;;;;;;5114710;28;20439;-85
2023/05/24 11:50:40;;;;;;;2.73;1.50;;;14.30;99.90;;;;;;5114786;28;20444;-85
2023/05/24 11:53:09;;;;;;;3.93;1.27;;;14.40;99.90;;;;;;5114721;28;20468;-85
2023/05/24 11:55:39;;;;;;;4.80;1.77;;;14.50;99.90;;;;;;5114772;28;20486;-85
2023/05/24 11:58:23;;;;;;;3.20;1.87;;;14.60;99.90;;;;;;5114590;28;20439;-85
2023/05/24 12:00:50;;;;;;;1.23;1.13;;;14.60;99.90;;;;;;5114315;28;20431;-85
2023/05/24 12:03:17;;;;;;;2.90;1.80;;;14.80;99.90;;;;;;5114741;28;20442;-84
2023/05/24 12:05:44;;;;;;;7.77;1.80;;;14.90;99.90;;;;;;5114395;28;20487;-83
2023/05/24 12:08:14;;;;;;;2.13;1.33;;;15.10;99.90;;;;;;5114092;28;20969;-84
2023/05/24 12:10:43;;;;;;;2.90;1.40;;;15.30;99.90;;;;;;5114319;28;20452;-85
2023/05/24 12:13:22;;;;;;;1.90;1.63;;;15.20;99.90;;;;;;5114379;28;20927;-85
2023/05/24 12:15:51;;;;;;;2.43;1.83;;;15.30;99.90;;;;;;5114069;27;20477;-85
2023/05/24 12:18:19;;;;;;;3.80;1.13;;;15.10;99.90;;;;;;5113906;28;20558;-89
2023/05/24 12:20:46;;;;;;;1.60;1.50;;;15.10;99.90;;;;;;5114253;28;20447;-85
2023/05/24 12:23:14;;;;;;;2.40;1.50;;;15.00;99.90;;;;;;5114184;28;20824;-85
2023/05/24 12:25:43;;;;;;;1.93;1.43;;;14.90;99.90;;;;;;5113922;28;20483;-85
2023/05/24 12:28:10;;;;;;;3.40;1.53;;;14.90;99.90;;;;;;5114043;28;20466;-85
2023/05/24 12:30:41;;;;;;;1.83;1.50;;;14.90;99.90;;;;;;5114074;28;20437;-86
2023/05/24 12:33:09;;;;;;;1.57;1.20;;;14.90;99.90;;;;;;5114323;28;20438;-85
2023/05/24 12:35:36;;;;;;;2.33;1.30;;;14.90;99.90;;;;;;5113727;28;20554;-85
2023/05/24 12:38:02;;;;;;;1.20;1.10;;;15.00;99.90;;;;;;5114044;28;20524;-85
2023/05/24 12:40:33;;;;;;;3.70;1.70;;;15.10;99.90;;;;;;5113883;28;20547;-85
2023/05/24 12:43:03;;;;;;;2.93;1.07;;;15.10;99.90;;;;;;5113966;28;20473;-85
2023/05/24 12:45:30;;;;;;;2.97;1.40;;;15.20;99.90;;;;;;5113462;28;20487;-85
2023/05/24 12:48:01;;;;;;;5.80;1.70;;;15.30;99.90;;;;;;5113921;28;20827;-85
2023/05/24 12:50:28;;;;;;;2.20;1.13;;;15.50;99.90;;;;;;5113552;28;20468;-84
2023/05/24 12:52:54;;;;;;;1.20;1.00;;;15.40;99.90;;;;;;5113841;28;20438;-85
2023/05/24 12:55:23;;;;;;;1.57;1.50;;;15.20;99.90;;;;;;5114000;28;20459;-85
2023/05/24 12:57:53;;;;;;;4.07;1.47;;;15.10;99.90;;;;;;5113700;28;20495;-84
2023/05/24 13:00:23;;;;;;;2.70;1.37;;;15.00;99.90;;;;;;5116195;28;20439;-85
2023/05/24 13:02:51;;;;;;;1.73;1.60;;;14.90;99.90;;;;;;5117930;28;20435;-85
2023/05/24 13:05:18;;;;;;;2.00;1.37;;;14.90;99.90;;;;;;5117754;28;20487;-85
2023/05/24 13:07:45;;;;;;;3.47;1.20;;;14.90;99.90;;;;;;5117606;28;20450;-84